createdAt,value
2023-04-15T00:02:18.641Z,18.44
2023-04-15T00:05:21.060Z,18.44
2023-04-15T00:08:23.645Z,18.38
2023-04-15T00:11:25.858Z,18.38
2023-04-15T00:14:28.126Z,18.44
2023-04-15T00:17:30.983Z,18.44
2023-04-15T00:20:32.999Z,18.38
2023-04-15T00:23:36.809Z,18.44
2023-04-15T00:26:39.078Z,18.38
2023-04-15T00:29:41.212Z,18.38
2023-04-15T00:32:43.261Z,18.44
2023-04-15T00:35:45.305Z,18.44
2023-04-15T00:38:47.361Z,18.38
2023-04-15T00:41:49.801Z,18.38
2023-04-15T00:44:52.026Z,18.38
2023-04-15T00:47:54.386Z,18.31
2023-04-15T00:50:56.738Z,18.31
2023-04-15T00:53:59.317Z,18.38
2023-04-15T00:57:02.110Z,18.25
2023-04-15T01:00:07.920Z,18.31
2023-04-15T01:03:10.037Z,18.25
2023-04-15T01:06:12.375Z,18.19
2023-04-15T01:09:14.618Z,18.19
2023-04-15T01:12:17.872Z,18.19
2023-04-15T01:15:21.273Z,18.19
2023-04-15T01:18:23.806Z,18.19
2023-04-15T01:21:26.552Z,18.19
2023-04-15T01:24:30.300Z,18.19
2023-04-15T01:27:33.081Z,18.19
2023-04-15T01:30:35.545Z,18.13
2023-04-15T01:33:38.666Z,18.13
2023-04-15T01:36:40.938Z,18.13
2023-04-15T01:39:42.961Z,18.13
2023-04-15T01:42:45.094Z,18.13
2023-04-15T01:45:47.073Z,18.13
2023-04-15T01:48:49.161Z,18.06
2023-04-15T01:51:51.186Z,18.06
2023-04-15T01:54:53.257Z,18.00
2023-04-15T01:57:55.283Z,18.00
2023-04-15T02:00:57.630Z,18.00
2023-04-15T02:03:59.794Z,18.06
2023-04-15T02:07:01.979Z,18.00
2023-04-15T02:10:04.238Z,18.00
2023-04-15T02:13:06.351Z,18.00
2023-04-15T02:16:20.657Z,17.94
2023-04-15T02:19:22.700Z,17.94
2023-04-15T02:22:24.712Z,17.94
2023-04-15T02:25:26.743Z,17.94
2023-04-15T02:28:28.863Z,17.94
2023-04-15T02:31:33.911Z,17.94
2023-04-15T02:34:37.707Z,17.88
2023-04-15T02:37:45.698Z,17.88
2023-04-15T02:40:49.630Z,17.88
2023-04-15T02:43:51.659Z,17.88
2023-04-15T02:46:54.813Z,17.88
2023-04-15T02:49:58.542Z,17.88
2023-04-15T02:53:01.687Z,17.81
2023-04-15T02:56:04.037Z,17.81
2023-04-15T02:59:06.109Z,17.81
2023-04-15T03:02:08.447Z,17.81
2023-04-15T03:05:14.489Z,17.81
2023-04-15T03:08:16.539Z,17.81
2023-04-15T03:11:19.541Z,17.81
2023-04-15T03:14:21.804Z,17.81
2023-04-15T03:17:23.835Z,17.75
2023-04-15T03:20:25.912Z,17.75
2023-04-15T03:23:28.082Z,17.75
2023-04-15T03:26:31.640Z,17.75
2023-04-15T03:29:33.884Z,17.75
2023-04-15T03:32:36.010Z,17.69
2023-04-15T03:35:38.431Z,17.69
2023-04-15T03:38:40.550Z,17.69
2023-04-15T03:41:42.526Z,17.69
2023-04-15T03:44:44.601Z,17.69
2023-04-15T03:47:46.706Z,17.69
2023-04-15T03:50:48.721Z,17.69
2023-04-15T03:53:51.108Z,17.69
2023-04-15T03:56:53.113Z,17.63
2023-04-15T03:59:55.310Z,17.63
2023-04-15T04:02:57.538Z,17.63
2023-04-15T04:05:59.872Z,17.63
2023-04-15T04:09:02.123Z,17.63
2023-04-15T04:12:04.372Z,17.56
2023-04-15T04:15:06.963Z,17.56
2023-04-15T04:18:09.036Z,17.63
2023-04-15T04:21:11.554Z,17.56
2023-04-15T04:24:13.673Z,17.56
2023-04-15T04:27:15.992Z,17.56
2023-04-15T04:30:18.056Z,17.56
2023-04-15T04:33:20.132Z,17.50
2023-04-15T04:36:22.223Z,17.50
2023-04-15T04:39:24.259Z,17.50
2023-04-15T04:42:26.394Z,17.50
2023-04-15T04:45:28.428Z,17.50
2023-04-15T04:48:30.433Z,17.50
2023-04-15T04:51:32.677Z,17.50
2023-04-15T04:54:34.773Z,17.50
2023-04-15T04:57:37.660Z,17.50
2023-04-15T05:00:40.935Z,17.50
2023-04-15T05:03:43.084Z,17.38
2023-04-15T05:06:45.195Z,17.44
2023-04-15T05:09:47.431Z,17.50
2023-04-15T05:12:50.434Z,17.56
2023-04-15T05:15:52.532Z,17.63
2023-04-15T05:18:54.624Z,17.63
2023-04-15T05:21:56.625Z,17.63
2023-04-15T05:24:58.710Z,17.50
2023-04-15T05:28:00.871Z,17.44
2023-04-15T05:31:03.034Z,17.44
2023-04-15T05:34:05.365Z,17.44
2023-04-15T05:37:07.792Z,17.44
2023-04-15T05:40:10.599Z,17.44
2023-04-15T05:43:12.676Z,17.38
2023-04-15T05:46:14.758Z,17.44
2023-04-15T05:49:16.800Z,17.38
2023-04-15T05:52:18.803Z,17.44
2023-04-15T05:55:21.209Z,17.63
2023-04-15T05:58:23.388Z,17.69
2023-04-15T06:01:26.018Z,17.69
2023-04-15T06:04:28.372Z,17.75
2023-04-15T06:07:30.918Z,17.81
2023-04-15T06:10:36.477Z,17.94
2023-04-15T06:13:38.605Z,18.00
2023-04-15T06:16:40.886Z,18.00
2023-04-15T06:19:43.016Z,18.13
2023-04-15T06:22:45.069Z,18.25
2023-04-15T06:25:47.104Z,18.31
2023-04-15T06:28:49.170Z,18.31
2023-04-15T06:31:51.675Z,18.31
2023-04-15T06:34:53.720Z,18.56
2023-04-15T06:37:55.785Z,18.69
2023-04-15T06:40:57.794Z,18.69
2023-04-15T06:43:59.811Z,18.75
2023-04-15T06:47:02.152Z,18.81
2023-04-15T06:50:04.468Z,18.75
2023-04-15T06:53:06.560Z,18.75
2023-04-15T06:56:11.617Z,18.94
2023-04-15T06:59:14.212Z,18.94
2023-04-15T07:02:16.428Z,19.06
2023-04-15T07:05:18.992Z,19.19
2023-04-15T07:08:21.207Z,19.25
2023-04-15T07:11:23.231Z,19.31
2023-04-15T07:14:25.322Z,19.31
2023-04-15T07:17:27.821Z,19.25
2023-04-15T07:20:29.963Z,19.31
2023-04-15T07:23:32.166Z,19.38
2023-04-15T07:26:34.207Z,19.38
2023-04-15T07:29:36.225Z,19.38
2023-04-15T07:32:38.458Z,19.50
2023-04-15T07:35:40.530Z,19.63
2023-04-15T07:38:43.129Z,19.88
2023-04-15T07:41:45.384Z,19.88
2023-04-15T07:44:47.438Z,19.94
2023-04-15T07:47:50.808Z,20.25
2023-04-15T07:50:53.424Z,20.31
2023-04-15T07:53:56.194Z,20.31
2023-04-15T07:56:58.966Z,20.50
2023-04-15T08:00:01.122Z,20.63
2023-04-15T08:03:03.976Z,20.75
2023-04-15T08:06:06.531Z,20.88
2023-04-15T08:09:08.507Z,20.94
2023-04-15T08:12:13.343Z,21.00
2023-04-15T08:15:15.724Z,21.13
2023-04-15T08:18:17.881Z,20.88
2023-04-15T08:21:21.080Z,20.81
2023-04-15T08:24:26.142Z,20.69
2023-04-15T08:27:28.398Z,20.69
2023-04-15T08:30:30.514Z,20.63
2023-04-15T08:33:32.929Z,20.69
2023-04-15T08:36:34.995Z,20.56
2023-04-15T08:39:37.743Z,20.56
2023-04-15T08:42:45.055Z,20.56
2023-04-15T08:45:48.678Z,20.56
2023-04-15T08:48:51.228Z,20.69
2023-04-15T08:51:53.575Z,20.75
2023-04-15T08:55:00.418Z,20.88
2023-04-15T08:58:03.255Z,20.69
2023-04-15T09:01:05.523Z,20.81
2023-04-15T09:04:08.203Z,20.88
2023-04-15T09:07:10.431Z,20.88
2023-04-15T09:10:12.697Z,20.88
2023-04-15T09:13:14.901Z,20.88
2023-04-15T09:16:17.077Z,20.94
2023-04-15T09:19:23.931Z,20.94
2023-04-15T09:22:32.933Z,20.88
2023-04-15T09:25:35.241Z,20.81
2023-04-15T09:28:43.505Z,20.75
2023-04-15T09:31:45.596Z,20.75
2023-04-15T09:34:48.130Z,20.75
2023-04-15T09:37:51.324Z,20.75
2023-04-15T09:40:53.504Z,20.81
2023-04-15T09:43:55.651Z,20.81
2023-04-15T09:46:57.840Z,20.88
2023-04-15T09:50:00.653Z,21.00
2023-04-15T09:53:04.921Z,21.06
2023-04-15T09:56:08.820Z,21.06
2023-04-15T09:59:11.178Z,21.00
2023-04-15T10:02:14.193Z,21.00
2023-04-15T10:05:17.890Z,20.94
2023-04-15T10:08:21.944Z,21.00
2023-04-15T10:11:24.348Z,20.94
2023-04-15T10:14:28.270Z,21.00
2023-04-15T10:17:35.525Z,20.88
2023-04-15T10:20:38.741Z,20.94
2023-04-15T10:23:40.831Z,20.88
2023-04-15T10:26:43.600Z,20.88
2023-04-15T10:29:46.830Z,20.81
2023-04-15T10:32:50.002Z,20.75
2023-04-15T10:35:54.201Z,20.75
2023-04-15T10:38:56.288Z,20.75
2023-04-15T10:42:10.285Z,20.63
2023-04-15T10:45:18.243Z,20.63
2023-04-15T10:48:20.472Z,20.56
2023-04-15T10:51:32.425Z,20.63
2023-04-15T10:54:38.968Z,20.69
2023-04-15T10:57:42.836Z,20.63
2023-04-15T11:00:54.151Z,20.50
2023-04-15T11:03:56.651Z,20.56
2023-04-15T11:07:08.037Z,20.63
2023-04-15T11:10:31.271Z,20.63
2023-04-15T11:13:34.195Z,20.56
2023-04-15T11:16:44.859Z,20.56
2023-04-15T11:19:47.118Z,20.56
2023-04-15T11:23:08.004Z,20.50
2023-04-15T11:26:16.173Z,20.50
2023-04-15T11:29:19.877Z,20.50
2023-04-15T11:32:22.498Z,20.63
2023-04-15T11:35:24.860Z,20.56
2023-04-15T11:38:28.059Z,20.69
2023-04-15T11:41:30.336Z,20.69
2023-04-15T11:44:32.324Z,20.81
2023-04-15T11:47:34.372Z,20.94
2023-04-15T11:50:37.926Z,21.06
2023-04-15T11:53:46.073Z,21.06
2023-04-15T11:56:52.618Z,21.19
2023-04-15T11:59:56.103Z,21.19
2023-04-15T12:03:19.188Z,20.94
2023-04-15T12:06:23.428Z,20.69
2023-04-15T12:09:25.453Z,20.63
2023-04-15T12:12:28.789Z,20.50
2023-04-15T12:15:30.857Z,20.63
2023-04-15T12:18:33.125Z,20.63
2023-04-15T12:21:38.133Z,20.63
2023-04-15T12:24:44.085Z,20.50
2023-04-15T12:27:52.164Z,20.44
2023-04-15T12:30:54.360Z,20.44
2023-04-15T12:33:57.958Z,20.50
2023-04-15T12:37:02.793Z,20.88
2023-04-15T12:40:09.264Z,20.88
2023-04-15T12:43:11.561Z,20.94
2023-04-15T12:46:14.188Z,21.00
2023-04-15T12:49:19.768Z,21.13
2023-04-15T12:52:22.169Z,21.25
2023-04-15T12:55:24.187Z,21.31
2023-04-15T12:58:26.290Z,21.38
2023-04-15T13:01:29.330Z,21.56
2023-04-15T13:04:31.909Z,21.63
2023-04-15T13:07:34.174Z,21.69
2023-04-15T13:10:36.604Z,21.63
2023-04-15T13:13:38.768Z,21.63
2023-04-15T13:16:41.506Z,21.63
2023-04-15T13:19:43.693Z,21.63
2023-04-15T13:22:45.798Z,21.56
2023-04-15T13:25:47.887Z,21.56
2023-04-15T13:28:49.957Z,21.69
2023-04-15T13:31:52.074Z,21.69
2023-04-15T13:34:56.371Z,21.63
2023-04-15T13:37:58.416Z,21.63
2023-04-15T13:41:00.450Z,21.69
2023-04-15T13:44:02.869Z,21.69
2023-04-15T13:47:05.265Z,21.69
2023-04-15T13:50:07.718Z,21.69
2023-04-15T13:53:09.724Z,21.63
2023-04-15T13:56:11.842Z,21.50
2023-04-15T13:59:14.000Z,21.44
2023-04-15T14:02:16.774Z,21.50
2023-04-15T14:05:18.907Z,21.50
2023-04-15T14:08:21.155Z,21.50
2023-04-15T14:11:23.198Z,21.50
2023-04-15T14:14:25.621Z,21.50
2023-04-15T14:17:27.714Z,21.50
2023-04-15T14:20:29.798Z,21.44
2023-04-15T14:23:31.940Z,21.38
2023-04-15T14:26:34.081Z,21.44
2023-04-15T14:29:36.327Z,21.38
2023-04-15T14:32:38.400Z,21.31
2023-04-15T14:35:40.700Z,21.44
2023-04-15T14:38:42.779Z,21.44
2023-04-15T14:41:45.151Z,21.31
2023-04-15T14:44:47.291Z,21.19
2023-04-15T14:47:49.441Z,21.19
2023-04-15T14:50:51.857Z,21.13
2023-04-15T14:53:53.960Z,21.06
2023-04-15T14:56:56.288Z,21.06
2023-04-15T14:59:59.212Z,21.06
2023-04-15T15:03:01.789Z,21.06
2023-04-15T15:06:04.098Z,21.00
2023-04-15T15:09:06.588Z,20.94
2023-04-15T15:12:08.895Z,20.94
2023-04-15T15:15:25.043Z,20.94
2023-04-15T15:18:31.496Z,20.94
2023-04-15T15:21:33.654Z,20.88
2023-04-15T15:24:35.810Z,20.81
2023-04-15T15:27:38.386Z,20.81
2023-04-15T15:30:40.646Z,20.88
2023-04-15T15:33:42.720Z,20.81
2023-04-15T15:36:44.874Z,20.81
2023-04-15T15:39:47.016Z,20.81
2023-04-15T15:42:50.832Z,20.69
2023-04-15T15:45:55.394Z,20.69
2023-04-15T15:48:58.184Z,20.69
2023-04-15T15:52:00.776Z,20.31
2023-04-15T15:55:02.979Z,20.13
2023-04-15T15:58:05.073Z,20.00
2023-04-15T16:01:07.188Z,19.81
2023-04-15T16:04:10.305Z,20.00
2023-04-15T16:07:13.070Z,19.75
2023-04-15T16:10:15.226Z,19.69
2023-04-15T16:13:17.396Z,19.56
2023-04-15T16:16:19.507Z,19.31
2023-04-15T16:19:21.882Z,19.44
2023-04-15T16:22:24.050Z,19.38
2023-04-15T16:25:26.255Z,19.19
2023-04-15T16:28:28.465Z,19.06
2023-04-15T16:31:31.294Z,19.13
2023-04-15T16:34:33.400Z,19.00
2023-04-15T16:37:36.101Z,18.88
2023-04-15T16:40:38.429Z,18.81
2023-04-15T16:43:40.579Z,19.31
2023-04-15T16:46:42.684Z,19.69
2023-04-15T16:49:44.768Z,19.81
2023-04-15T16:52:46.835Z,19.88
2023-04-15T16:55:48.887Z,19.88
2023-04-15T16:58:50.974Z,19.88
2023-04-15T17:01:54.427Z,19.88
2023-04-15T17:04:56.547Z,19.88
2023-04-15T17:07:59.045Z,19.88
2023-04-15T17:11:01.271Z,19.88
2023-04-15T17:14:03.609Z,19.88
2023-04-15T17:17:06.899Z,19.88
2023-04-15T17:20:09.375Z,19.88
2023-04-15T17:23:11.468Z,19.81
2023-04-15T17:26:13.736Z,19.75
2023-04-15T17:29:15.814Z,19.75
2023-04-15T17:32:18.058Z,19.75
2023-04-15T17:35:20.539Z,19.81
2023-04-15T17:38:22.665Z,19.81
2023-04-15T17:41:25.315Z,19.75
2023-04-15T17:44:27.396Z,19.75
2023-04-15T17:47:29.674Z,19.69
2023-04-15T17:50:31.733Z,19.63
2023-04-15T17:53:34.064Z,19.63
2023-04-15T17:56:36.150Z,19.56
2023-04-15T17:59:38.235Z,19.56
2023-04-15T18:02:40.970Z,19.56
2023-04-15T18:05:43.551Z,19.50
2023-04-15T18:08:45.617Z,19.50
2023-04-15T18:11:48.693Z,19.44
2023-04-15T18:14:51.034Z,19.44
2023-04-15T18:17:53.485Z,19.44
2023-04-15T18:20:55.581Z,19.44
2023-04-15T18:23:57.679Z,19.44
2023-04-15T18:26:59.771Z,19.38
2023-04-15T18:30:01.919Z,19.38
2023-04-15T18:33:04.648Z,19.38
2023-04-15T18:36:06.886Z,19.31
2023-04-15T18:39:09.035Z,19.31
2023-04-15T18:42:11.095Z,19.31
2023-04-15T18:45:13.229Z,19.31
2023-04-15T18:48:16.016Z,19.25
2023-04-15T18:51:18.068Z,19.25
2023-04-15T18:54:20.177Z,19.25
2023-04-15T18:57:25.653Z,19.25
2023-04-15T19:00:33.406Z,19.19
2023-04-15T19:03:35.702Z,19.19
2023-04-15T19:06:38.144Z,19.19
2023-04-15T19:09:41.046Z,19.19
2023-04-15T19:12:43.305Z,19.19
2023-04-15T19:15:45.441Z,19.13
2023-04-15T19:18:47.506Z,19.13
2023-04-15T19:21:50.324Z,19.06
2023-04-15T19:24:52.672Z,19.06
2023-04-15T19:27:54.726Z,19.06
2023-04-15T19:30:57.925Z,19.06
2023-04-15T19:34:00.157Z,19.00
2023-04-15T19:37:02.265Z,19.00
2023-04-15T19:40:04.742Z,19.00
2023-04-15T19:43:06.812Z,19.00
2023-04-15T19:46:09.089Z,19.00
2023-04-15T19:49:11.623Z,19.00
2023-04-15T19:52:13.695Z,19.00
2023-04-15T19:55:15.847Z,18.94
2023-04-15T19:58:17.992Z,19.00
2023-04-15T20:01:20.849Z,18.94
2023-04-15T20:04:23.101Z,18.94
2023-04-15T20:07:25.248Z,18.94
2023-04-15T20:10:27.512Z,18.94
2023-04-15T20:13:29.658Z,18.88
2023-04-15T20:16:31.823Z,18.94
2023-04-15T20:19:33.917Z,18.88
2023-04-15T20:22:36.080Z,18.88
2023-04-15T20:25:38.217Z,18.88
2023-04-15T20:28:40.446Z,18.88
2023-04-15T20:31:42.652Z,18.88
2023-04-15T20:34:44.846Z,18.81
2023-04-15T20:37:48.358Z,18.81
2023-04-15T20:40:50.387Z,18.81
2023-04-15T20:43:52.468Z,18.81
2023-04-15T20:46:54.567Z,18.81
2023-04-15T20:49:56.799Z,18.75
2023-04-15T20:52:58.892Z,18.75
2023-04-15T20:56:01.030Z,18.81
2023-04-15T20:59:03.407Z,18.75
2023-04-15T21:02:05.695Z,18.75
2023-04-15T21:05:09.029Z,18.75
2023-04-15T21:08:11.194Z,18.81
2023-04-15T21:11:18.900Z,18.75
2023-04-15T21:14:30.923Z,18.75
2023-04-15T21:17:35.104Z,18.75
2023-04-15T21:20:37.240Z,18.75
2023-04-15T21:23:39.472Z,18.69
2023-04-15T21:26:41.576Z,18.69
2023-04-15T21:29:43.906Z,18.69
2023-04-15T21:32:46.029Z,18.69
2023-04-15T21:35:48.353Z,18.69
2023-04-15T21:38:50.674Z,18.69
2023-04-15T21:41:52.817Z,18.69
2023-04-15T21:44:54.954Z,18.69
2023-04-15T21:48:07.057Z,18.69
2023-04-15T21:51:10.349Z,18.69
2023-04-15T21:54:12.437Z,18.63
2023-04-15T21:57:14.802Z,18.63
2023-04-15T22:00:17.380Z,18.63
2023-04-15T22:03:19.751Z,18.63
2023-04-15T22:06:21.938Z,18.63
2023-04-15T22:09:24.047Z,18.63
2023-04-15T22:12:26.262Z,18.56
2023-04-15T22:15:29.051Z,18.63
2023-04-15T22:18:31.246Z,18.56
2023-04-15T22:21:33.296Z,18.56
2023-04-15T22:24:40.315Z,18.56
2023-04-15T22:27:43.269Z,18.50
2023-04-15T22:30:45.580Z,18.56
2023-04-15T22:33:47.657Z,18.56
2023-04-15T22:36:53.503Z,18.50
2023-04-15T22:39:55.778Z,18.50
2023-04-15T22:42:57.928Z,18.50
2023-04-15T22:46:00.886Z,18.50
2023-04-15T22:49:03.155Z,18.50
2023-04-15T22:52:05.760Z,18.50
2023-04-15T22:55:08.566Z,18.44
2023-04-15T22:58:10.701Z,18.44
2023-04-15T23:01:13.006Z,18.44
2023-04-15T23:04:23.555Z,18.44
2023-04-15T23:07:27.849Z,18.44
2023-04-15T23:10:29.968Z,18.44
2023-04-15T23:13:32.337Z,18.38
2023-04-15T23:16:34.541Z,18.38
2023-04-15T23:19:36.709Z,18.44
2023-04-15T23:22:39.004Z,18.44
2023-04-15T23:25:42.093Z,18.38
2023-04-15T23:28:44.135Z,18.38
2023-04-15T23:31:46.279Z,18.38
2023-04-15T23:34:48.456Z,18.38
2023-04-15T23:37:50.760Z,18.38
2023-04-15T23:40:52.920Z,18.38
2023-04-15T23:43:54.990Z,18.38
2023-04-15T23:46:57.116Z,18.38
2023-04-15T23:49:59.185Z,18.31
2023-04-15T23:53:01.813Z,18.31
2023-04-15T23:56:04.111Z,18.38
2023-04-15T23:59:06.250Z,18.31
